Time;durP1;ratioP1;P1;durP2;ratioP2;P2;SDS_P1;SDS_P2;PMS_P1;PMS_P2;Temp;Humidity;BMP_temperature;BMP_pressure;BME280_temperature;BME280_humidity;BME280_pressure;Samples;Min_cycle;Max_cycle;Signal;HPM_P1;HPM_P2
2023/09/13 00:00:59;;;;;;;66.37;31.07;;;;;;;;;;5083790;28;20463;-68
2023/09/13 00:03:24;;;;;;;61.93;28.23;;;;;;;;;;5077827;28;20277;-68
2023/09/13 00:05:50;;;;;;;67.87;32.17;;;;;;;;;;5090401;28;20273;-68
2023/09/13 00:08:15;;;;;;;68.18;31.90;;;;;;;;;;5078135;28;20275;-68
2023/09/13 00:10:42;;;;;;;77.70;32.85;;;;;;;;;;5074917;28;20016;-68
2023/09/13 00:13:07;;;;;;;74.55;31.33;;;;;;;;;;5074485;28;20012;-68
2023/09/13 00:15:32;;;;;;;69.47;32.30;;;;;;;;;;5074741;28;20032;-68
2023/09/13 00:17:57;;;;;;;79.90;33.88;;;;;;;;;;5075148;28;20350;-68
2023/09/13 00:20:23;;;;;;;79.65;34.20;;;;;;;;;;5074838;28;20028;-68
2023/09/13 00:22:48;;;;;;;83.57;34.40;;;;;;;;;;5075253;28;20158;-68
2023/09/13 00:25:13;;;;;;;75.82;34.72;;;;;;;;;;5074927;28;20310;-68
2023/09/13 00:27:38;;;;;;;95.90;37.65;;;;;;;;;;5076581;28;20024;-69
2023/09/13 00:30:07;;;;;;;85.03;36.30;;;;;;;;;;5076527;28;20032;-69
2023/09/13 00:32:32;;;;;;;87.93;36.38;;;;;;;;;;5091214;28;20616;-69
2023/09/13 00:34:57;;;;;;;86.90;37.20;;;;;;;;;;5092456;28;20099;-69
2023/09/13 00:37:22;;;;;;;99.60;38.67;;;;;;;;;;5091312;28;20752;-68
2023/09/13 00:39:47;;;;;;;113.77;43.33;;;;;;;;;;5092981;28;20636;-68
2023/09/13 00:42:13;;;;;;;112.10;43.03;;;;;;;;;;5089854;28;20288;-68
2023/09/13 00:44:38;;;;;;;125.53;48.90;;;;;;;;;;5077594;28;20337;-68
2023/09/13 00:47:03;;;;;;;134.60;47.72;;;;;;;;;;5092908;28;20308;-70
2023/09/13 00:49:29;;;;;;;120.75;47.13;;;;;;;;;;5088965;28;20016;-68
2023/09/13 00:51:56;;;;;;;136.88;49.40;;;;;;;;;;5093663;28;20055;-68
2023/09/13 00:54:21;;;;;;;130.43;50.42;;;;;;;;;;5093050;28;20144;-68
2023/09/13 00:56:47;;;;;;;129.77;50.45;;;;;;;;;;5092927;28;20028;-67
2023/09/13 00:59:12;;;;;;;139.40;51.22;;;;;;;;;;5091772;28;20094;-69
2023/09/13 01:01:37;;;;;;;135.63;50.80;;;;;;;;;;5089240;28;20102;-68
2023/09/13 01:04:03;;;;;;;125.93;52.85;;;;;;;;;;5093004;28;20024;-68
2023/09/13 01:06:28;;;;;;;127.72;51.72;;;;;;;;;;5092560;28;20475;-69
2023/09/13 01:08:54;;;;;;;141.85;54.30;;;;;;;;;;5093275;28;20024;-69
2023/09/13 01:11:19;;;;;;;139.83;55.23;;;;;;;;;;5080243;28;20445;-68
2023/09/13 01:13:45;;;;;;;141.57;54.10;;;;;;;;;;5086908;28;20270;-68
2023/09/13 01:16:25;;;;;;;134.70;53.27;;;;;;;;;;5073565;28;20471;-68
2023/09/13 01:18:59;;;;;;;121.22;52.13;;;;;;;;;;5080715;28;20274;-69
2023/09/13 01:21:43;;;;;;;123.07;54.25;;;;;;;;;;5092500;28;20082;-69
2023/09/13 01:24:08;;;;;;;104.15;48.30;;;;;;;;;;5087833;28;20490;-69
2023/09/13 01:26:44;;;;;;;107.53;50.43;;;;;;;;;;5093144;28;20050;-69
2023/09/13 01:29:13;;;;;;;108.50;49.63;;;;;;;;;;5090600;28;20277;-69
2023/09/13 01:31:38;;;;;;;123.47;50.53;;;;;;;;;;5091225;28;20043;-68
2023/09/13 01:34:03;;;;;;;118.28;51.22;;;;;;;;;;5079094;28;20024;-69
2023/09/13 01:36:29;;;;;;;119.22;51.90;;;;;;;;;;5082467;28;20027;-69
2023/09/13 01:38:55;;;;;;;115.10;51.63;;;;;;;;;;5077952;28;20020;-69
2023/09/13 01:41:22;;;;;;;124.43;52.70;;;;;;;;;;5083627;28;20043;-69
2023/09/13 01:43:50;;;;;;;122.32;52.75;;;;;;;;;;5076275;28;20625;-69
2023/09/13 01:46:15;;;;;;;111.28;49.97;;;;;;;;;;5073589;28;20547;-69
2023/09/13 01:48:41;;;;;;;114.50;51.28;;;;;;;;;;5085621;28;20103;-69
2023/09/13 01:51:07;;;;;;;113.05;51.97;;;;;;;;;;5072883;28;20032;-69
2023/09/13 01:53:32;;;;;;;110.97;51.50;;;;;;;;;;5081964;28;20020;-69
2023/09/13 01:55:58;;;;;;;102.38;49.33;;;;;;;;;;5092084;28;20474;-69
2023/09/13 01:58:23;;;;;;;104.03;50.50;;;;;;;;;;5091548;28;20030;-69
2023/09/13 02:00:48;;;;;;;100.28;49.28;;;;;;;;;;5090797;28;20095;-69
2023/09/13 02:03:14;;;;;;;104.00;49.53;;;;;;;;;;5079028;28;20026;-69
2023/09/13 02:05:39;;;;;;;117.05;51.25;;;;;;;;;;5081390;28;20270;-69
2023/09/13 02:08:04;;;;;;;104.88;50.35;;;;;;;;;;5082159;28;20123;-69
2023/09/13 02:10:30;;;;;;;117.45;51.72;;;;;;;;;;5085883;28;20479;-68
2023/09/13 02:12:55;;;;;;;110.25;52.45;;;;;;;;;;5072465;28;20503;-69
2023/09/13 02:15:20;;;;;;;115.00;54.37;;;;;;;;;;5092074;28;20031;-69
2023/09/13 02:17:45;;;;;;;118.23;55.07;;;;;;;;;;5079373;28;20696;-69
2023/09/13 02:20:11;;;;;;;123.47;56.03;;;;;;;;;;5072617;28;20355;-68
2023/09/13 02:22:36;;;;;;;127.18;54.22;;;;;;;;;;5075899;28;20464;-68
2023/09/13 02:25:03;;;;;;;129.60;55.53;;;;;;;;;;5090209;28;20119;-69
2023/09/13 02:27:28;;;;;;;137.27;55.55;;;;;;;;;;5091175;28;20467;-69
2023/09/13 02:29:53;;;;;;;129.25;54.33;;;;;;;;;;5085725;28;20024;-68
2023/09/13 02:32:19;;;;;;;122.50;51.90;;;;;;;;;;5071972;28;20024;-68
2023/09/13 02:34:44;;;;;;;114.07;52.37;;;;;;;;;;5076575;28;20292;-68
2023/09/13 02:37:10;;;;;;;109.20;51.50;;;;;;;;;;5082330;28;20828;-68
2023/09/13 02:39:39;;;;;;;101.10;46.78;;;;;;;;;;5076011;28;20039;-68
2023/09/13 02:42:05;;;;;;;101.40;48.13;;;;;;;;;;5074463;28;20020;-68
2023/09/13 02:44:31;;;;;;;90.15;45.45;;;;;;;;;;5077009;28;20133;-68
2023/09/13 02:46:57;;;;;;;87.78;44.97;;;;;;;;;;5073589;28;20131;-68
2023/09/13 02:49:23;;;;;;;82.32;43.80;;;;;;;;;;5077457;28;20020;-68
2023/09/13 02:51:49;;;;;;;86.28;41.83;;;;;;;;;;5075529;28;20029;-68
2023/09/13 02:54:14;;;;;;;81.65;45.08;;;;;;;;;;5086183;28;20031;-68
2023/09/13 02:56:39;;;;;;;76.78;41.15;;;;;;;;;;5091530;28;20462;-69
2023/09/13 02:59:05;;;;;;;81.70;43.85;;;;;;;;;;5087078;28;20331;-69
2023/09/13 03:01:30;;;;;;;88.23;43.83;;;;;;;;;;5088764;28;20031;-68
2023/09/13 03:03:55;;;;;;;67.37;41.50;;;;;;;;;;5084791;28;20291;-69
2023/09/13 03:06:20;;;;;;;78.57;42.33;;;;;;;;;;5083935;28;20372;-69
2023/09/13 03:08:45;;;;;;;73.88;41.60;;;;;;;;;;5089112;28;20392;-69
2023/09/13 03:11:15;;;;;;;88.00;44.90;;;;;;;;;;5091670;28;20069;-69
2023/09/13 03:13:40;;;;;;;90.10;47.42;;;;;;;;;;5090932;28;20285;-69
2023/09/13 03:16:13;;;;;;;88.50;45.63;;;;;;;;;;5091707;28;20024;-69
2023/09/13 03:18:39;;;;;;;76.10;41.03;;;;;;;;;;5075502;28;20064;-69
2023/09/13 03:21:08;;;;;;;91.25;45.05;;;;;;;;;;5084678;28;20059;-68
2023/09/13 03:23:36;;;;;;;92.13;44.67;;;;;;;;;;5078242;28;20094;-68
2023/09/13 03:26:01;;;;;;;95.15;45.38;;;;;;;;;;5089874;28;20032;-68
2023/09/13 03:28:26;;;;;;;89.80;43.20;;;;;;;;;;5090939;28;20390;-68
2023/09/13 03:30:52;;;;;;;82.32;43.20;;;;;;;;;;5090233;28;20270;-68
2023/09/13 03:33:17;;;;;;;88.77;44.47;;;;;;;;;;5091325;28;20086;-68
2023/09/13 03:35:42;;;;;;;80.27;41.47;;;;;;;;;;5090784;28;20688;-68
2023/09/13 03:38:07;;;;;;;69.23;37.90;;;;;;;;;;5090473;28;20266;-68
2023/09/13 03:40:32;;;;;;;68.10;35.73;;;;;;;;;;5077519;28;20324;-68
2023/09/13 03:42:58;;;;;;;65.03;38.53;;;;;;;;;;5088693;28;20274;-68
2023/09/13 03:45:23;;;;;;;63.50;36.17;;;;;;;;;;5089973;28;20293;-69
2023/09/13 03:47:48;;;;;;;63.53;35.80;;;;;;;;;;5089180;28;20282;-69
2023/09/13 03:50:13;;;;;;;61.57;36.03;;;;;;;;;;5090323;28;20742;-68
2023/09/13 03:52:39;;;;;;;62.40;36.35;;;;;;;;;;5089233;28;20764;-69
2023/09/13 03:55:07;;;;;;;62.60;37.70;;;;;;;;;;5085740;28;20030;-69
2023/09/13 03:57:32;;;;;;;67.70;37.00;;;;;;;;;;5081773;28;20279;-69
2023/09/13 03:59:57;;;;;;;72.15;38.83;;;;;;;;;;5089700;28;20039;-68
2023/09/13 04:02:23;;;;;;;64.95;36.25;;;;;;;;;;5070931;28;20113;-69
2023/09/13 04:04:48;;;;;;;69.87;39.37;;;;;;;;;;5070439;28;20044;-68
2023/09/13 04:07:13;;;;;;;67.93;39.20;;;;;;;;;;5077309;28;20278;-67
2023/09/13 04:09:39;;;;;;;63.67;37.60;;;;;;;;;;5086086;28;20027;-68
2023/09/13 04:12:04;;;;;;;66.88;38.95;;;;;;;;;;5086766;28;20024;-69
2023/09/13 04:14:29;;;;;;;67.35;37.45;;;;;;;;;;5088171;28;20036;-69
2023/09/13 04:16:54;;;;;;;66.38;37.45;;;;;;;;;;5082443;28;20486;-69
2023/09/13 04:19:20;;;;;;;76.05;38.85;;;;;;;;;;5076702;28;20017;-69
2023/09/13 04:21:45;;;;;;;64.13;37.80;;;;;;;;;;5086722;28;20031;-68
2023/09/13 04:24:10;;;;;;;68.53;38.53;;;;;;;;;;5077924;28;20100;-69
2023/09/13 04:26:36;;;;;;;68.63;36.43;;;;;;;;;;5087162;28;20355;-69
2023/09/13 04:29:02;;;;;;;72.75;38.75;;;;;;;;;;5084055;28;20290;-69
2023/09/13 04:31:28;;;;;;;72.47;36.10;;;;;;;;;;5086163;28;20479;-68
2023/09/13 04:33:54;;;;;;;70.77;37.30;;;;;;;;;;5090555;28;20035;-69
2023/09/13 04:36:19;;;;;;;63.45;37.10;;;;;;;;;;5092531;28;20801;-69
2023/09/13 04:38:46;;;;;;;65.35;35.53;;;;;;;;;;5092641;28;20023;-69
2023/09/13 04:41:13;;;;;;;64.38;36.70;;;;;;;;;;5093218;28;20379;-68
2023/09/13 04:43:38;;;;;;;75.05;37.53;;;;;;;;;;5092253;28;20035;-69
2023/09/13 04:46:03;;;;;;;71.43;38.33;;;;;;;;;;5093190;28;20526;-69
2023/09/13 04:48:29;;;;;;;69.77;36.53;;;;;;;;;;5092203;28;20024;-70
2023/09/13 04:50:54;;;;;;;65.78;37.15;;;;;;;;;;5091972;28;20357;-69
2023/09/13 04:53:19;;;;;;;76.47;37.47;;;;;;;;;;5093226;28;20374;-68
2023/09/13 04:55:44;;;;;;;77.32;37.90;;;;;;;;;;5089413;28;20059;-68
2023/09/13 04:58:10;;;;;;;66.88;36.50;;;;;;;;;;5081055;28;20039;-68
2023/09/13 05:00:35;;;;;;;71.20;38.03;;;;;;;;;;5085725;28;20103;-68
2023/09/13 05:03:00;;;;;;;60.93;33.33;;;;;;;;;;5072993;28;20029;-68
2023/09/13 05:05:26;;;;;;;59.63;33.33;;;;;;;;;;5077199;28;20291;-67
2023/09/13 05:07:51;;;;;;;62.23;36.33;;;;;;;;;;5074404;28;20279;-68
2023/09/13 05:10:16;;;;;;;65.65;34.88;;;;;;;;;;5073657;28;20273;-68
2023/09/13 05:12:41;;;;;;;61.85;32.78;;;;;;;;;;5085053;28;20115;-68
2023/09/13 05:15:07;;;;;;;59.50;34.25;;;;;;;;;;5074608;28;20082;-68
2023/09/13 05:17:32;;;;;;;60.25;33.15;;;;;;;;;;5085344;28;20024;-68
2023/09/13 05:19:57;;;;;;;64.97;35.37;;;;;;;;;;5092662;28;20024;-69
2023/09/13 05:22:22;;;;;;;62.92;34.30;;;;;;;;;;5092921;28;20349;-68
2023/09/13 05:24:48;;;;;;;69.90;36.73;;;;;;;;;;5091397;28;20082;-69
2023/09/13 05:27:13;;;;;;;57.90;34.63;;;;;;;;;;5092416;28;21094;-68
2023/09/13 05:29:38;;;;;;;63.10;33.93;;;;;;;;;;5092091;28;20708;-69
2023/09/13 05:32:04;;;;;;;59.10;34.33;;;;;;;;;;5091039;28;20700;-68
2023/09/13 05:34:29;;;;;;;58.78;34.42;;;;;;;;;;5091957;28;20020;-68
2023/09/13 05:36:55;;;;;;;59.75;33.17;;;;;;;;;;5087618;28;20147;-68
2023/09/13 05:39:20;;;;;;;58.65;34.47;;;;;;;;;;5074871;28;20046;-68
2023/09/13 05:41:46;;;;;;;60.22;34.20;;;;;;;;;;5082979;28;20429;-68
2023/09/13 05:44:17;;;;;;;54.15;33.17;;;;;;;;;;5078564;28;20020;-68
2023/09/13 05:46:42;;;;;;;57.63;33.08;;;;;;;;;;5081530;28;20501;-68
2023/09/13 05:49:07;;;;;;;57.17;33.13;;;;;;;;;;5087727;28;20059;-68
2023/09/13 05:51:32;;;;;;;50.63;31.37;;;;;;;;;;5084193;28;20761;-68
2023/09/13 05:53:58;;;;;;;65.28;34.30;;;;;;;;;;5085859;28;20289;-68
2023/09/13 05:56:23;;;;;;;59.78;33.55;;;;;;;;;;5077915;28;20012;-68
2023/09/13 05:58:48;;;;;;;61.60;32.10;;;;;;;;;;5090972;28;20020;-68
2023/09/13 06:01:14;;;;;;;56.07;32.77;;;;;;;;;;5080518;28;20281;-68
2023/09/13 06:03:39;;;;;;;58.03;31.17;;;;;;;;;;5088702;28;20286;-68
2023/09/13 06:06:04;;;;;;;54.57;33.20;;;;;;;;;;5091825;28;20461;-69
2023/09/13 06:08:29;;;;;;;56.43;34.07;;;;;;;;;;5077905;28;20311;-69
2023/09/13 06:10:54;;;;;;;65.03;34.00;;;;;;;;;;5090979;28;20274;-68
2023/09/13 06:13:20;;;;;;;63.92;32.53;;;;;;;;;;5076661;28;20274;-69
2023/09/13 06:15:45;;;;;;;51.72;31.33;;;;;;;;;;5085002;28;20012;-69
2023/09/13 06:18:10;;;;;;;56.08;32.13;;;;;;;;;;5077314;28;20056;-69
2023/09/13 06:20:35;;;;;;;63.78;32.17;;;;;;;;;;5083868;28;20017;-69
2023/09/13 06:23:01;;;;;;;55.15;31.52;;;;;;;;;;5071717;28;20020;-69
2023/09/13 06:25:26;;;;;;;54.08;30.63;;;;;;;;;;5079028;28;20431;-68
2023/09/13 06:27:51;;;;;;;52.42;31.92;;;;;;;;;;5089476;28;20439;-69
2023/09/13 06:30:17;;;;;;;53.90;31.83;;;;;;;;;;5073012;28;20017;-69
2023/09/13 06:32:42;;;;;;;50.78;29.23;;;;;;;;;;5072623;28;20298;-69
2023/09/13 06:35:11;;;;;;;54.05;30.45;;;;;;;;;;5072209;28;20020;-69
2023/09/13 06:37:37;;;;;;;54.38;30.42;;;;;;;;;;5083543;28;20024;-69
2023/09/13 06:40:03;;;;;;;51.63;30.05;;;;;;;;;;5070633;28;20403;-69
2023/09/13 06:42:28;;;;;;;55.22;30.80;;;;;;;;;;5084906;28;20391;-69
2023/09/13 06:44:53;;;;;;;60.07;33.00;;;;;;;;;;5077130;28;20032;-68
2023/09/13 06:47:18;;;;;;;53.07;32.13;;;;;;;;;;5078663;28;20691;-68
2023/09/13 06:49:44;;;;;;;61.37;32.00;;;;;;;;;;5090007;28;20359;-69
2023/09/13 06:52:09;;;;;;;58.03;32.70;;;;;;;;;;5081477;28;20275;-67
2023/09/13 06:54:34;;;;;;;55.35;32.60;;;;;;;;;;5089294;28;20270;-68
2023/09/13 06:56:59;;;;;;;51.27;30.50;;;;;;;;;;5086334;28;20035;-68
2023/09/13 06:59:25;;;;;;;51.97;31.13;;;;;;;;;;5089623;28;20266;-68
2023/09/13 07:01:50;;;;;;;52.83;30.20;;;;;;;;;;5081310;28;20760;-68
2023/09/13 07:04:17;;;;;;;55.35;30.67;;;;;;;;;;5082377;28;20606;-68
2023/09/13 07:06:42;;;;;;;47.28;27.70;;;;;;;;;;5088867;28;20481;-68
2023/09/13 07:09:08;;;;;;;49.70;30.05;;;;;;;;;;5077643;28;20091;-68
2023/09/13 07:11:33;;;;;;;50.38;29.13;;;;;;;;;;5078115;28;20065;-68
2023/09/13 07:13:59;;;;;;;50.73;29.47;;;;;;;;;;5083324;28;20085;-68
2023/09/13 07:16:24;;;;;;;55.25;30.67;;;;;;;;;;5083558;28;20297;-68
2023/09/13 07:18:50;;;;;;;50.63;30.50;;;;;;;;;;5076524;28;20013;-68
2023/09/13 07:21:15;;;;;;;52.17;29.67;;;;;;;;;;5089590;28;20390;-68
2023/09/13 07:23:40;;;;;;;44.80;26.52;;;;;;;;;;5076933;28;20029;-68
2023/09/13 07:26:06;;;;;;;44.70;27.63;;;;;;;;;;5080240;28;20471;-68
2023/09/13 07:28:34;;;;;;;44.03;27.27;;;;;;;;;;5083119;28;20633;-68
2023/09/13 07:30:59;;;;;;;48.00;26.77;;;;;;;;;;5081355;28;20455;-68
2023/09/13 07:33:25;;;;;;;43.07;27.10;;;;;;;;;;5076278;28;20115;-67
2023/09/13 07:35:50;;;;;;;40.33;26.30;;;;;;;;;;5080946;28;20682;-68
2023/09/13 07:38:15;;;;;;;40.45;25.63;;;;;;;;;;5081960;28;20056;-68
2023/09/13 07:40:40;;;;;;;41.53;24.80;;;;;;;;;;5078507;28;20079;-69
2023/09/13 07:43:07;;;;;;;38.70;23.92;;;;;;;;;;5080374;28;20470;-69
2023/09/13 07:45:33;;;;;;;39.80;23.27;;;;;;;;;;5087212;28;20020;-68
2023/09/13 07:48:00;;;;;;;35.78;23.35;;;;;;;;;;5080075;28;20029;-67
2023/09/13 07:50:32;;;;;;;34.10;23.98;;;;;;;;;;5083727;28;20027;-68
2023/09/13 07:52:57;;;;;;;32.63;21.60;;;;;;;;;;5090283;28;20021;-68
2023/09/13 07:55:23;;;;;;;35.90;22.08;;;;;;;;;;5086492;28;20473;-70
2023/09/13 07:57:48;;;;;;;33.08;22.85;;;;;;;;;;5078346;28;20031;-70
2023/09/13 08:00:13;;;;;;;29.27;21.55;;;;;;;;;;5092345;28;20051;-69
2023/09/13 08:02:41;;;;;;;31.77;22.13;;;;;;;;;;5092627;28;20024;-69
2023/09/13 08:05:06;;;;;;;29.95;21.10;;;;;;;;;;5079093;28;20120;-69
2023/09/13 08:07:31;;;;;;;32.17;21.27;;;;;;;;;;5074012;28;20132;-69
2023/09/13 08:09:57;;;;;;;29.27;19.80;;;;;;;;;;5075178;28;20040;-69
2023/09/13 08:12:22;;;;;;;33.50;20.40;;;;;;;;;;5086849;28;20306;-69
2023/09/13 08:14:47;;;;;;;29.58;20.30;;;;;;;;;;5073642;28;20263;-68
2023/09/13 08:17:12;;;;;;;30.60;21.90;;;;;;;;;;5087059;28;20494;-68
2023/09/13 08:19:38;;;;;;;32.97;20.60;;;;;;;;;;5078641;28;20271;-68
2023/09/13 08:22:04;;;;;;;37.40;20.20;;;;;;;;;;5092423;28;20284;-69
2023/09/13 08:24:29;;;;;;;30.92;20.63;;;;;;;;;;5089741;28;20637;-69
2023/09/13 08:26:54;;;;;;;32.22;21.00;;;;;;;;;;5085317;28;20039;-69
2023/09/13 08:29:20;;;;;;;32.08;20.70;;;;;;;;;;5089613;28;20035;-69
2023/09/13 08:31:45;;;;;;;31.40;21.13;;;;;;;;;;5086768;28;20477;-69
2023/09/13 08:34:10;;;;;;;34.65;21.42;;;;;;;;;;5089544;28;20020;-69
2023/09/13 08:36:35;;;;;;;32.70;20.48;;;;;;;;;;5075420;28;20462;-69
2023/09/13 08:39:01;;;;;;;32.97;20.20;;;;;;;;;;5089444;28;20034;-69
2023/09/13 08:41:26;;;;;;;31.10;21.50;;;;;;;;;;5088978;28;20024;-69
2023/09/13 08:43:52;;;;;;;32.33;19.60;;;;;;;;;;5093487;28;20510;-70
2023/09/13 08:46:19;;;;;;;31.95;22.00;;;;;;;;;;5083310;28;20020;-69
2023/09/13 08:48:45;;;;;;;33.17;20.58;;;;;;;;;;5080692;28;20056;-69
2023/09/13 08:51:10;;;;;;;27.65;18.88;;;;;;;;;;5088207;28;20027;-69
2023/09/13 08:53:36;;;;;;;30.25;18.77;;;;;;;;;;5088617;28;20017;-71
2023/09/13 08:56:01;;;;;;;32.35;19.60;;;;;;;;;;5087371;28;20490;-69
2023/09/13 08:58:26;;;;;;;27.02;19.45;;;;;;;;;;5083567;28;20020;-69
2023/09/13 09:00:52;;;;;;;28.30;19.13;;;;;;;;;;5074411;28;20020;-69
2023/09/13 09:03:20;;;;;;;34.25;20.10;;;;;;;;;;5090888;28;20074;-69
2023/09/13 09:05:45;;;;;;;25.58;17.88;;;;;;;;;;5083629;28;20494;-69
2023/09/13 09:08:11;;;;;;;31.35;19.45;;;;;;;;;;5079197;28;20025;-69
2023/09/13 09:10:37;;;;;;;27.90;18.67;;;;;;;;;;5079833;28;20544;-69
2023/09/13 09:13:03;;;;;;;26.67;17.77;;;;;;;;;;5080882;28;20463;-69
2023/09/13 09:15:30;;;;;;;29.15;18.88;;;;;;;;;;5085687;28;20024;-69
2023/09/13 09:17:56;;;;;;;30.23;18.23;;;;;;;;;;5089158;28;20020;-69
2023/09/13 09:20:27;;;;;;;32.13;19.83;;;;;;;;;;5088643;28;20020;-70
2023/09/13 09:22:53;;;;;;;30.08;19.95;;;;;;;;;;5088752;28;20028;-69
2023/09/13 09:25:20;;;;;;;25.35;18.75;;;;;;;;;;5089941;28;20032;-69
2023/09/13 09:27:45;;;;;;;24.67;18.08;;;;;;;;;;5091197;28;20035;-69
2023/09/13 09:30:14;;;;;;;24.63;17.38;;;;;;;;;;5088740;28;20395;-68
2023/09/13 09:32:39;;;;;;;25.98;18.10;;;;;;;;;;5078345;28;20020;-68
2023/09/13 09:35:05;;;;;;;25.53;16.80;;;;;;;;;;5087940;28;20035;-68
2023/09/13 09:37:31;;;;;;;22.90;17.08;;;;;;;;;;5088643;28;20270;-69
2023/09/13 09:39:56;;;;;;;26.73;18.23;;;;;;;;;;5081574;28;20027;-69
2023/09/13 09:42:22;;;;;;;27.45;18.70;;;;;;;;;;5081291;28;20085;-69
2023/09/13 09:44:47;;;;;;;26.02;18.10;;;;;;;;;;5086192;28;20035;-70
2023/09/13 09:47:13;;;;;;;26.42;17.50;;;;;;;;;;5082779;28;20029;-70
2023/09/13 09:49:39;;;;;;;26.95;17.63;;;;;;;;;;5086455;28;20020;-69
2023/09/13 09:52:05;;;;;;;24.38;16.58;;;;;;;;;;5050576;28;20078;-70
2023/09/13 09:54:31;;;;;;;27.92;17.00;;;;;;;;;;5088202;28;20024;-70
2023/09/13 09:56:56;;;;;;;27.00;18.33;;;;;;;;;;5085252;28;20731;-69
2023/09/13 09:59:26;;;;;;;24.10;16.40;;;;;;;;;;5076909;28;20081;-69
2023/09/13 10:01:58;;;;;;;23.60;17.13;;;;;;;;;;5077675;28;20028;-70
2023/09/13 10:04:23;;;;;;;23.13;16.75;;;;;;;;;;5071370;28;20062;-69
2023/09/13 10:07:03;;;;;;;26.73;18.23;;;;;;;;;;5080596;28;20024;-70
2023/09/13 10:09:38;;;;;;;24.73;18.33;;;;;;;;;;5070049;28;20360;-70
2023/09/13 10:12:04;;;;;;;26.95;17.67;;;;;;;;;;5062657;28;20024;-70
2023/09/13 10:14:29;;;;;;;28.35;18.35;;;;;;;;;;5054972;28;21012;-70
2023/09/13 10:16:55;;;;;;;26.05;17.02;;;;;;;;;;5048265;28;20062;-71
2023/09/13 10:19:22;;;;;;;25.20;15.52;;;;;;;;;;5045107;28;20056;-70
2023/09/13 10:21:48;;;;;;;21.88;16.38;;;;;;;;;;5065896;28;20025;-70
2023/09/13 10:24:16;;;;;;;19.27;13.90;;;;;;;;;;5088189;28;20397;-69
2023/09/13 10:26:41;;;;;;;19.50;14.18;;;;;;;;;;5080436;28;20021;-69
2023/09/13 10:29:21;;;;;;;16.45;11.45;;;;;;;;;;5086194;28;20029;-69
2023/09/13 10:31:47;;;;;;;7.28;4.68;;;;;;;;;;5073782;28;20021;-69
2023/09/13 10:34:23;;;;;;;5.07;2.10;;;;;;;;;;5080590;28;20043;-68
2023/09/13 10:36:49;;;;;;;3.55;1.80;;;;;;;;;;5088219;28;20039;-69
2023/09/13 10:39:17;;;;;;;2.83;1.60;;;;;;;;;;5085009;28;20418;-67
2023/09/13 10:41:48;;;;;;;3.42;2.03;;;;;;;;;;5075518;28;20024;-70
2023/09/13 10:44:14;;;;;;;3.30;2.08;;;;;;;;;;5075691;28;20041;-69
2023/09/13 10:46:40;;;;;;;2.90;2.05;;;;;;;;;;5078393;28;20031;-69
2023/09/13 10:49:06;;;;;;;3.35;2.33;;;;;;;;;;5070958;28;20039;-69
2023/09/13 10:51:31;;;;;;;3.90;2.58;;;;;;;;;;5083370;28;20048;-72
2023/09/13 10:53:57;;;;;;;3.80;2.80;;;;;;;;;;5075422;28;20675;-72
2023/09/13 10:56:23;;;;;;;4.30;3.00;;;;;;;;;;5087882;28;20051;-71
2023/09/13 10:58:49;;;;;;;7.27;2.93;;;;;;;;;;5084104;28;20082;-70
2023/09/13 11:01:15;;;;;;;3.90;2.92;;;;;;;;;;5089617;28;20277;-71
2023/09/13 11:03:41;;;;;;;5.50;2.80;;;;;;;;;;5089464;28;20028;-70
2023/09/13 11:06:07;;;;;;;4.13;2.88;;;;;;;;;;5090617;28;20106;-71
2023/09/13 11:08:33;;;;;;;4.00;2.67;;;;;;;;;;5090791;28;20103;-69
2023/09/13 11:11:07;;;;;;;4.28;2.60;;;;;;;;;;5090659;28;20024;-72
2023/09/13 11:13:32;;;;;;;3.90;2.20;;;;;;;;;;5077283;28;20028;-71
2023/09/13 11:16:01;;;;;;;2.78;1.55;;;;;;;;;;5088355;28;20035;-70
2023/09/13 11:18:27;;;;;;;3.20;1.90;;;;;;;;;;5078340;28;20016;-71
2023/09/13 11:20:52;;;;;;;2.95;1.95;;;;;;;;;;5081762;28;20042;-71
2023/09/13 11:23:20;;;;;;;3.60;2.05;;;;;;;;;;5092600;28;20527;-72
2023/09/13 11:25:49;;;;;;;2.88;1.40;;;;;;;;;;5086824;28;20111;-72
2023/09/13 11:28:32;;;;;;;3.70;1.92;;;;;;;;;;5080607;28;20503;-71
2023/09/13 11:30:59;;;;;;;3.67;1.63;;;;;;;;;;5080079;28;20406;-71
2023/09/13 11:33:25;;;;;;;2.80;2.00;;;;;;;;;;5079041;28;20685;-72
2023/09/13 11:35:51;;;;;;;4.15;2.17;;;;;;;;;;5056691;28;20028;-71
2023/09/13 11:38:16;;;;;;;2.58;1.40;;;;;;;;;;5048044;28;20143;-71
2023/09/13 11:40:48;;;;;;;4.15;1.40;;;;;;;;;;5046420;28;20016;-71
2023/09/13 11:43:21;;;;;;;2.50;1.35;;;;;;;;;;5038796;28;20078;-72
2023/09/13 11:45:50;;;;;;;2.67;1.53;;;;;;;;;;5045350;28;20032;-68
2023/09/13 11:48:19;;;;;;;3.47;1.50;;;;;;;;;;5040903;28;20063;-71
2023/09/13 11:50:47;;;;;;;2.38;1.48;;;;;;;;;;5073124;28;20020;-68
2023/09/13 11:53:16;;;;;;;2.38;1.40;;;;;;;;;;5084111;28;20079;-69
2023/09/13 11:55:44;;;;;;;2.90;1.58;;;;;;;;;;5083768;28;20387;-69
2023/09/13 11:58:14;;;;;;;4.38;1.52;;;;;;;;;;5086290;28;20020;-71
2023/09/13 12:00:42;;;;;;;2.53;1.40;;;;;;;;;;5074028;28;20471;-73
2023/09/13 12:03:08;;;;;;;3.58;1.63;;;;;;;;;;5073813;28;20021;-70
2023/09/13 12:05:33;;;;;;;3.65;1.85;;;;;;;;;;5074725;28;20112;-70
2023/09/13 12:07:59;;;;;;;3.17;2.05;;;;;;;;;;5075740;28;20032;-69
2023/09/13 12:10:35;;;;;;;3.45;1.88;;;;;;;;;;5086386;28;20067;-70
2023/09/13 12:13:00;;;;;;;3.70;1.52;;;;;;;;;;5075085;28;20054;-70
2023/09/13 12:15:26;;;;;;;4.15;1.30;;;;;;;;;;5075131;28;20037;-72
2023/09/13 12:17:51;;;;;;;3.13;1.50;;;;;;;;;;5077222;28;20012;-70
2023/09/13 12:20:16;;;;;;;3.40;1.80;;;;;;;;;;5075689;28;20029;-69
2023/09/13 12:22:41;;;;;;;2.47;1.57;;;;;;;;;;5077467;28;20626;-70
2023/09/13 12:25:10;;;;;;;3.15;1.98;;;;;;;;;;5083865;28;20302;-69
2023/09/13 12:27:36;;;;;;;3.15;1.88;;;;;;;;;;5078718;28;20024;-70
2023/09/13 12:30:16;;;;;;;2.72;1.80;;;;;;;;;;5076374;28;20025;-70
2023/09/13 12:32:43;;;;;;;3.58;2.17;;;;;;;;;;5079352;28;20383;-70
2023/09/13 12:35:09;;;;;;;1.92;1.08;;;;;;;;;;5075543;28;20129;-70
2023/09/13 12:37:34;;;;;;;3.20;1.17;;;;;;;;;;5079903;28;20110;-69
2023/09/13 12:40:10;;;;;;;1.97;1.07;;;;;;;;;;5076421;28;20027;-70
2023/09/13 12:42:37;;;;;;;2.90;1.20;;;;;;;;;;5079709;28;20284;-71
2023/09/13 12:45:03;;;;;;;2.67;1.02;;;;;;;;;;5079126;28;20028;-70
2023/09/13 12:47:28;;;;;;;2.30;1.00;;;;;;;;;;5077586;28;20026;-71
2023/09/13 12:49:54;;;;;;;2.58;1.20;;;;;;;;;;5077865;28;20028;-71
2023/09/13 12:52:19;;;;;;;1.98;0.90;;;;;;;;;;5082714;28;20024;-70
2023/09/13 12:54:45;;;;;;;2.75;1.25;;;;;;;;;;5072491;28;20082;-71
2023/09/13 12:57:11;;;;;;;2.30;0.77;;;;;;;;;;5082770;28;20036;-70
2023/09/13 12:59:41;;;;;;;2.08;0.95;;;;;;;;;;5089092;28;20475;-71
2023/09/13 13:02:11;;;;;;;1.95;0.90;;;;;;;;;;5092728;28;20028;-71
2023/09/13 13:04:39;;;;;;;1.77;0.77;;;;;;;;;;5079148;28;20028;-70
2023/09/13 13:07:04;;;;;;;2.40;0.90;;;;;;;;;;5086189;28;20039;-70
2023/09/13 13:09:29;;;;;;;2.20;1.00;;;;;;;;;;5072372;28;20099;-70
2023/09/13 13:11:55;;;;;;;3.33;0.80;;;;;;;;;;5085111;28;20033;-69
2023/09/13 13:14:23;;;;;;;2.05;0.90;;;;;;;;;;5072196;28;20522;-71
2023/09/13 13:16:52;;;;;;;2.33;0.80;;;;;;;;;;5077498;28;20104;-70
2023/09/13 13:19:25;;;;;;;3.03;1.00;;;;;;;;;;5083630;28;20023;-70
2023/09/13 13:21:51;;;;;;;2.17;0.83;;;;;;;;;;5090094;28;20051;-72
2023/09/13 13:24:16;;;;;;;2.70;1.10;;;;;;;;;;5086393;28;20024;-72
2023/09/13 13:26:42;;;;;;;4.10;1.55;;;;;;;;;;5074352;28;20024;-72
2023/09/13 13:29:09;;;;;;;1.67;0.60;;;;;;;;;;5084772;28;20031;-71
2023/09/13 13:31:35;;;;;;;1.88;0.85;;;;;;;;;;5089757;28;20316;-71
2023/09/13 13:34:00;;;;;;;1.90;0.60;;;;;;;;;;5092450;28;20067;-70
2023/09/13 13:36:25;;;;;;;1.40;0.53;;;;;;;;;;5089127;28;20278;-69
2023/09/13 13:38:50;;;;;;;1.63;0.57;;;;;;;;;;5091365;28;20309;-69
2023/09/13 13:41:17;;;;;;;2.90;0.70;;;;;;;;;;5086994;28;20016;-69
2023/09/13 13:43:42;;;;;;;2.20;0.80;;;;;;;;;;5088742;28;20012;-69
2023/09/13 13:46:10;;;;;;;1.20;0.43;;;;;;;;;;5067310;28;20107;-69
2023/09/13 13:48:37;;;;;;;2.28;0.82;;;;;;;;;;5083721;28;20274;-70
2023/09/13 13:51:03;;;;;;;1.13;0.43;;;;;;;;;;5086978;28;20033;-70
2023/09/13 13:53:29;;;;;;;1.95;0.60;;;;;;;;;;5086637;28;20024;-71
2023/09/13 13:55:54;;;;;;;1.75;0.60;;;;;;;;;;5081044;28;20086;-70
2023/09/13 13:58:20;;;;;;;1.38;0.50;;;;;;;;;;5082011;28;20036;-71
2023/09/13 14:00:45;;;;;;;1.40;0.50;;;;;;;;;;5091986;28;20072;-71
2023/09/13 14:03:11;;;;;;;1.20;0.50;;;;;;;;;;5088148;28;20636;-71
2023/09/13 14:05:39;;;;;;;1.20;0.30;;;;;;;;;;5088132;28;20290;-71
2023/09/13 14:08:04;;;;;;;1.45;0.50;;;;;;;;;;5085914;28;20098;-71
2023/09/13 14:10:30;;;;;;;2.28;0.52;;;;;;;;;;5086836;28;20067;-71
2023/09/13 14:12:56;;;;;;;1.13;0.50;;;;;;;;;;5080813;28;20025;-71
2023/09/13 14:15:21;;;;;;;1.65;0.50;;;;;;;;;;5087904;28;20272;-70